Norwichtown, Connecticut
Current Conditions -  °F | °C
As of 9:08 PM on Monday 22 Dec 2014 (Local Time) from KIJD Reporting Station
Overcast Overcast  
Wind Chill: 38°   Ceiling: 1200
Heat Index: 41°   Visibility: 10mi
Dew Point: 37°   Wind: 5mph
Humidity: 86%   Direction: 40°NE
Pressure: 30.27"   Gusts: NA
Location:  41.5523°N, 72.0921°W
Report Text: KIJD 230208Z AUTO 04004KT 10SM BKN012 OVC018 05/03 A3027 RMK AO2 T00500028
Loading
Personal Weather Stations






























Interactive Weather Map New forecast layout! Learn more

10-Day Weather Forecast

Advertisements
Track Severe Weather on mobile